Flight Track Log - Related Links

Times and Time Zones

All times are in EST time to prevent confusion due to time zone crossing. See the UAL906 flight status page for this flight to view local times or setup timezone preferences in your user account.

Time Position Orientation Groundspeed Altitude Reporting Facility
EST Latitude Longitude Course Direction KTS MPH feet Rate Location/Type
Tue 07:11:00 AM 50.2885 7.9257 305° West  Level Estimated
Tue 07:12:00 AM 50.3617 7.7795 308° West  Level FlightAware Approximate
Tue 07:13:00 AM 50.4265 7.6236 303° West  Level Estimated
Tue 07:14:00 AM 50.4976 7.4745 307° West  Level FlightAware Approximate
Tue 07:15:00 AM 50.5620 7.3177 306° West  Level Estimated
Tue 07:16:00 AM 50.6336 7.1687 307° West  Level FlightAware Approximate
Tue 07:17:00 AM 50.6975 7.0111 304° West  Level Estimated
Tue 07:18:00 AM 50.7613 6.8530 298° West  Level Estimated
Tue 07:19:00 AM 50.8248 6.6945 309° West  Level Estimated
Tue 07:20:00 AM 50.8881 6.5356 304° West  Level Estimated
Tue 07:20:22 AM 50.7728 7.3088 304° West 400 460 23,500  Level FlightAware ADS-B
Tue 07:21:05 AM 50.8384 7.2413 327° Northwest 394 453 24,800 1,280 Climbing FlightAware ADS-B
Tue 07:21:37 AM 50.8868 7.1912 327° Northwest 403 464 25,100 455 Climbing FlightAware ADS-B
Tue 07:22:11 AM 50.9414 7.1346 327° Northwest 419 482 25,300 462 Climbing FlightAware ADS-B
Tue 07:22:42 AM 50.9877 7.0791 323° Northwest 426 490 25,600 571 Climbing FlightAware ADS-B
Tue 07:23:14 AM 51.0354 7.0137 319° Northwest 437 503 25,900 484 Climbing FlightAware ADS-B
Tue 07:23:44 AM 51.0813 6.9428 316° Northwest 447 514 26,100 492 Climbing FlightAware ADS-B
Tue 07:24:15 AM 51.1252 6.8700 314° West 458 527 26,400 590 Climbing FlightAware ADS-B
Tue 07:24:45 AM 51.1698 6.7942 313° West 469 540 26,700 646 Climbing FlightAware ADS-B
Tue 07:25:20 AM 51.2186 6.7106 313° West 480 552 27,100 882 Climbing FlightAware ADS-B (EDKL)
Tue 07:26:27 AM 51.3245 6.5298 313° West 488 562 28,200 974 Climbing FlightAware ADS-B
Tue 07:27:17 AM 51.3496 6.4869 313° West 492 566 29,000 897 Climbing FlightAware ADS-B (EDKL)
Tue 07:27:54 AM 51.4608 6.2963 313° West 502 578 29,500 911 Climbing FlightAware ADS-B
Tue 07:28:36 AM 51.5136 6.2053 313° West 507 583 30,200 1,149 Climbing FlightAware ADS-B
Tue 07:29:28 AM 51.5189 6.1960 313° West 507 583 31,300 991 Climbing FlightAware ADS-B (EDKL)
Tue 07:31:00 AM 51.6146 5.9458 302° West  Level Estimated
Tue 07:32:00 AM 51.6767 5.7821 301° West  Level Estimated
Tue 07:32:20 AM 51.8660 5.5607 301° West 476 548 33,900  Level FlightAware UK
Tue 07:33:01 AM 51.9088 5.4378 302° West 481 554 34,000 125 Climbing FlightAware ADS-B
Tue 07:33:08 AM 51.9216 5.4169 302° West 474 545 34,000 -109 Level FlightAware UK
Tue 07:33:56 AM 51.9823 5.2765 302° West 472 543 33,900 -77 Descending FlightAware UK
Tue 07:34:26 AM 52.0232 5.1912 308° West 476 548 33,900  Level FlightAware UK
Tue 07:35:02 AM 52.0705 5.0871 306° West 474 545 33,900 113 Level FlightAware UK
Tue 07:35:19 AM 52.0947 5.0355 306° West 479 551 34,000 122 Climbing FlightAware ADS-B
Tue 07:35:51 AM 52.1352 4.9474 307° West 479 551 34,000  Level FlightAware ADS-B
Tue 07:36:42 AM 52.1851 4.8384 307° West 477 549 34,000 -72 Level FlightAware ADS-B
Tue 07:37:14 AM 52.2453 4.7080 307° West 478 550 33,900  Descending FlightAware UK
Tue 07:37:50 AM 52.2930 4.6053 307° West 476 548 34,000  Climbing FlightAware UK
Tue 07:38:31 AM 52.3461 4.4847 306° West 476 548 33,900 -46 Descending FlightAware UK
Tue 07:40:01 AM 52.4609 4.2284 306° West 474 545 33,900  Level FlightAware UK
Tue 07:40:49 AM 52.5219 4.0923 306° West 474 545 33,900  Level FlightAware UK
Tue 07:41:19 AM 52.5596 4.0073 306° West 474 545 33,900  Level FlightAware UK
Tue 07:42:37 AM 52.6564 3.7860 306° West 470 541 33,900  Level FlightAware UK
Tue 07:43:19 AM 52.7082 3.6669 306° West 472 543 33,900  Level FlightAware UK
Tue 07:43:49 AM 52.7452 3.5816 306° West 474 545 33,900 70 Level FlightAware UK
Tue 07:44:45 AM 52.7975 3.4113 306° West 447 514 34,000  Climbing FlightAware ADS-B
Tue 07:46:13 AM 52.8518 3.1275 306° West 474 545 33,900 -48 Descending FlightAware UK
Tue 07:46:49 AM 52.8736 3.0114 287° West 472 543 33,900 98 Level FlightAware UK
Tue 07:47:14 AM 52.8848 2.9476 287° West 445 512 34,000 200 Climbing FlightAware ADS-B
Tue 07:47:19 AM 52.8911 2.9142 287° West 474 545 34,000 -146 Level FlightAware UK
Tue 07:47:55 AM 52.9122 2.7970 287° West 472 543 33,900 -83 Descending FlightAware UK
Tue 07:48:31 AM 52.9334 2.6793 287° West 472 543 33,900 77 Level FlightAware UK
Tue 07:49:13 AM 52.9581 2.5412 287° West 474 545 34,000 102 Climbing FlightAware UK
Tue 07:49:30 AM 52.9680 2.4862 287° West 457 526 34,000  Level FlightAware ADS-B
Tue 07:50:15 AM 52.9948 2.3354 287° West 460 529 34,000  Level FlightAware ADS-B (EGLC / LCY)
Tue 07:50:50 AM 53.0171 2.2168 287° West 460 529 34,000  Level FlightAware ADS-B (EGLC / LCY)
Tue 07:51:25 AM 53.0392 2.0976 287° West 480 552 34,000  Level FlightAware UK
Tue 07:51:52 AM 53.0519 2.0296 287° West 461 531 34,000  Level FlightAware ADS-B
Tue 07:52:27 AM 53.0769 1.8935 287° West 460 529 34,000  Level FlightAware ADS-B
Tue 07:52:38 AM 53.0845 1.8513 287° West 460 529 34,000  Level FlightAware ADS-B
Tue 07:53:08 AM 53.1025 1.7520 287° West 458 527 34,000  Level FlightAware ADS-B
Tue 07:53:22 AM 53.1111 1.7042 287° West 458 527 34,000  Level FlightAware ADS-B
Tue 07:53:43 AM 53.1217 1.6450 287° West 459 528 34,000  Level FlightAware ADS-B
Tue 07:53:53 AM 53.1300 1.5987 287° West 459 528 34,000  Level FlightAware ADS-B
Tue 07:54:17 AM 53.1446 1.5164 287° West 461 531 34,000  Level FlightAware ADS-B
Tue 07:54:30 AM 53.1520 1.4749 287° West 462 532 34,000  Level FlightAware ADS-B
Tue 07:54:50 AM 53.1643 1.4061 287° West 463 533 34,000  Level FlightAware ADS-B
Tue 07:55:01 AM 53.1706 1.3703 286° West 463 533 34,000  Level FlightAware ADS-B
Tue 07:55:20 AM 53.1819 1.3060 286° West 465 535 34,000  Level FlightAware ADS-B
Tue 07:55:32 AM 53.1896 1.2625 286° West 465 535 34,000  Level FlightAware ADS-B
Tue 07:55:59 AM 53.2060 1.1687 286° West 464 534 34,000  Level FlightAware ADS-B
Tue 07:56:04 AM 53.2086 1.1540 286° West 464 534 34,000  Level FlightAware ADS-B
Tue 07:56:37 AM 53.2284 1.0406 286° West 463 533 34,000  Level FlightAware ADS-B
Tue 07:57:11 AM 53.2489 0.9220 286° West 464 534 34,000  Level FlightAware ADS-B
Tue 07:57:13 AM 53.2370 0.9910 106° East 464 534 34,000  Level FlightAware ADS-B
Tue 07:57:43 AM 53.2676 0.8132 286° West 464 534 34,000  Level FlightAware ADS-B
Tue 07:58:18 AM 53.2864 0.7023 286° West 465 535 34,000  Level FlightAware ADS-B
Tue 07:58:33 AM 53.2966 0.6426 286° West 465 535 34,000  Level FlightAware ADS-B
Tue 07:58:51 AM 53.3058 0.5881 286° West 465 535 34,000  Level FlightAware ADS-B
Tue 07:59:03 AM 53.3144 0.5382 286° West 465 535 34,000  Level FlightAware ADS-B
Tue 07:59:22 AM 53.3228 0.4885 286° West 465 535 34,000  Level FlightAware ADS-B
Tue 07:59:35 AM 53.3330 0.4274 286° West 465 535 34,000  Level FlightAware ADS-B
Tue 07:59:52 AM 53.3431 0.3670 286° West 465 535 34,000  Level FlightAware ADS-B
Tue 08:00:05 AM 53.3504 0.3230 286° West 466 536 34,000  Level FlightAware ADS-B
Tue 08:00:23 AM 53.3606 0.2614 286° West 466 536 34,000  Level FlightAware ADS-B
Tue 08:00:38 AM 53.3694 0.2083 285° West 467 537 34,000  Level FlightAware ADS-B
Tue 08:00:53 AM 53.3777 0.1588 286° West 467 537 34,000  Level FlightAware ADS-B
Tue 08:01:08 AM 53.3867 0.1042 286° West 467 537 34,000  Level FlightAware ADS-B
Tue 08:01:24 AM 53.3950 0.0538 285° West 468 539 34,000  Level FlightAware ADS-B
Tue 08:01:40 AM 53.4046 -0.0048 285° West 467 537 34,000  Level FlightAware ADS-B
Tue 08:01:54 AM 53.4125 -0.0533 285° West 468 539 34,000  Level FlightAware ADS-B
Tue 08:02:10 AM 53.4220 -0.1120 285° West 469 540 34,000  Level FlightAware ADS-B
Tue 08:02:18 AM 53.4265 -0.1396 285° West 469 540 34,000  Level FlightAware ADS-B
Tue 08:02:28 AM 53.4310 -0.1676 285° West 469 540 34,000  Level FlightAware ADS-B
Tue 08:02:38 AM 53.4368 -0.2037 285° West 470 541 34,000  Level FlightAware ADS-B
Tue 08:02:41 AM 53.4394 -0.2195 285° West 470 541 34,000  Level FlightAware ADS-B
Tue 08:02:51 AM 53.4452 -0.2557 285° West 468 539 34,000  Level FlightAware ADS-B (EPKK / KRK)
Tue 08:03:21 AM 53.4619 -0.3596 285° West 470 541 34,000  Level FlightAware ADS-B
Tue 08:03:51 AM 53.4780 -0.4598 285° West 471 542 34,000  Level FlightAware ADS-B
Tue 08:04:25 AM 53.4980 -0.5866 285° West 470 541 34,000  Level FlightAware ADS-B
Tue 08:04:27 AM 53.4986 -0.5901 285° West 471 542 34,000  Level FlightAware ADS-B
Tue 08:04:44 AM 53.5085 -0.6529 285° West 470 541 34,000  Level FlightAware ADS-B (KCCR)
Tue 08:04:56 AM 53.5150 -0.6936 285° West 473 544 34,000  Level FlightAware ADS-B
Tue 08:05:08 AM 53.5217 -0.7367 285° West 472 543 34,000  Level FlightAware ADS-B
Tue 08:05:28 AM 53.5326 -0.8064 285° West 472 543 34,000  Level FlightAware ADS-B
Tue 08:05:38 AM 53.5386 -0.8453 285° West 472 543 34,000  Level FlightAware ADS-B
Tue 08:05:51 AM 53.5452 -0.8878 285° West 473 544 34,000  Level FlightAware ADS-B
Tue 08:05:58 AM 53.5494 -0.9143 285° West 472 543 34,000  Level FlightAware ADS-B
Tue 08:06:05 AM 53.5530 -0.9381 284° West 472 543 34,000  Level FlightAware ADS-B
Tue 08:06:11 AM 53.5564 -0.9597 285° West 473 544 34,000  Level FlightAware ADS-B
Tue 08:06:35 AM 53.5696 -1.0457 284° West 474 545 34,000  Level FlightAware ADS-B
Tue 08:06:42 AM 53.5731 -1.0684 284° West 474 545 34,000  Level FlightAware ADS-B (EPKK / KRK)
Tue 08:07:07 AM 53.5871 -1.1602 284° West 473 544 34,000  Level FlightAware ADS-B
Tue 08:07:12 AM 53.5894 -1.1762 284° West 474 545 34,000  Level FlightAware ADS-B
Tue 08:07:39 AM 53.6041 -1.2732 284° West 471 542 34,000  Level FlightAware ADS-B
Tue 08:07:42 AM 53.6059 -1.2849 285° West 472 543 34,000  Level FlightAware ADS-B
Tue 08:08:13 AM 53.6224 -1.3943 284° West 471 542 34,000  Level FlightAware ADS-B
Tue 08:08:43 AM 53.6374 -1.4946 284° West 471 542 34,000  Level FlightAware ADS-B
Tue 08:08:51 AM 53.6423 -1.5265 284° West 470 541 34,000  Level FlightAware ADS-B
Tue 08:09:15 AM 53.6547 -1.6093 284° West 470 541 34,000  Level FlightAware ADS-B (EGNT / NCL)
Tue 08:09:21 AM 53.6583 -1.6338 284° West 470 541 34,000  Level FlightAware ADS-B
Tue 08:09:48 AM 53.6720 -1.7270 284° West 470 541 34,000  Level FlightAware ADS-B (EGCW)
Tue 08:09:51 AM 53.6741 -1.7412 284° West 470 541 34,000 563 Level FlightAware ADS-B
Tue 08:10:20 AM 53.6889 -1.8421 284° West 469 540 34,300 600 Climbing FlightAware ADS-B (EGCW)
Tue 08:10:21 AM 53.6898 -1.8481 284° West 469 540 34,300 1,000 Level FlightAware ADS-B
Tue 08:10:44 AM 53.7010 -1.9255 284° West 467 537 34,700 938 Climbing FlightAware ADS-B
Tue 08:10:53 AM 53.7057 -1.9579 284° West 466 536 34,800 800 Climbing FlightAware ADS-B
Tue 08:11:14 AM 53.7169 -2.0345 284° West 466 536 35,100 750 Climbing FlightAware ADS-B
Tue 08:11:25 AM 53.7221 -2.0715 284° West 465 535 35,200 400 Climbing FlightAware ADS-B (EPKK / KRK)
Tue 08:11:29 AM 53.7241 -2.0854 283° West 467 537 35,200  Level FlightAware ADS-B
Tue 08:11:35 AM 53.7270 -2.1055 284° West 468 539 35,200 500 Level FlightAware ADS-B (EGNT / NCL)
Tue 08:11:53 AM 53.7364 -2.1710 284° West 468 539 35,400 789 Climbing FlightAware ADS-B (EGCW)
Tue 08:12:13 AM 53.7467 -2.2436 283° West 465 535 35,700 968 Climbing FlightAware ADS-B
Tue 08:12:24 AM 53.7510 -2.2744 283° West 463 533 35,900 419 Climbing FlightAware ADS-B
Tue 08:12:56 AM 53.7670 -2.3870 284° West 460 529 36,000 143 Climbing FlightAware ADS-B
Tue 08:13:06 AM 53.7717 -2.4205 283° West 462 532 36,000  Level FlightAware ADS-B (EGNT / NCL)
Tue 08:13:22 AM 53.7802 -2.4804 283° West 462 532 36,000  Level FlightAware ADS-B (EGNT / NCL)
Tue 08:13:44 AM 53.7908 -2.5568 283° West 463 533 36,000  Level FlightAware ADS-B
Tue 08:13:57 AM 53.7977 -2.6068 283° West 462 532 36,000  Level FlightAware ADS-B (EPKK / KRK)
Tue 08:14:07 AM 53.8022 -2.6388 283° West 464 534 36,000  Level FlightAware ADS-B (EGCW)
Tue 08:14:25 AM 53.8116 -2.7061 283° West 462 532 36,000  Level FlightAware ADS-B (EPKK / KRK)
Tue 08:14:55 AM 53.8259 -2.8101 283° West 464 534 36,000  Level FlightAware ADS-B (EGNT / NCL)
Tue 08:15:06 AM 53.8311 -2.8481 283° West 463 533 36,000  Level FlightAware ADS-B (EGGP / LPL)
Tue 08:15:13 AM 53.8335 -2.8658 283° West 465 535 36,000  Level FlightAware ADS-B (EGNT / NCL)
Tue 08:15:37 AM 53.8463 -2.9603 283° West 464 534 36,000  Level FlightAware ADS-B (EGGP / LPL)
Tue 08:16:12 AM 53.8628 -3.0819 283° West 463 533 36,000  Level FlightAware ADS-B (EGGP / LPL)
Tue 08:16:23 AM 53.8681 -3.1208 283° West 463 533 36,000  Level FlightAware ADS-B (EGCW)
Tue 08:17:13 AM 53.8916 -3.2973 283° West 463 533 36,000  Level FlightAware ADS-B (EPKK / KRK)
Tue 08:17:30 AM 53.8968 -3.3358 283° West 464 534 36,000  Level FlightAware ADS-B
Tue 08:17:47 AM 53.9115 -3.4143 288° West 462 532 36,000  Level FlightAware ADS-B (EGCW)
Tue 08:17:58 AM 53.9194 -3.4517 290° West 462 532 36,000  Level FlightAware ADS-B (EGCW)
Tue 08:18:08 AM 53.9277 -3.4884 291° West 459 528 36,000  Level FlightAware ADS-B
Tue 08:18:40 AM 53.9532 -3.5948 292° West 462 532 36,000  Level FlightAware ADS-B (EGGP / LPL)
Tue 08:18:59 AM 53.9683 -3.6574 292° West 459 528 36,000  Level FlightAware ADS-B (EGGP / LPL)
Tue 08:19:27 AM 53.9913 -3.7533 292° West 459 528 36,000  Level FlightAware ADS-B (EPKK / KRK)
Tue 08:20:04 AM 54.0200 -3.8761 292° West 460 529 36,000  Level FlightAware ADS-B (EPKK / KRK)
Tue 08:20:40 AM 54.0478 -3.9963 292° West 463 533 36,000  Level FlightAware ADS-B (EGCW)
Tue 08:21:01 AM 54.0644 -4.0685 292° West 459 528 36,000  Level FlightAware ADS-B (EPKK / KRK)
Tue 08:21:35 AM 54.0912 -4.1847 291° West 463 533 36,000  Level FlightAware ADS-B (EGCW)
Tue 08:22:06 AM 54.1152 -4.2895 291° West 462 532 36,000  Level FlightAware ADS-B
Tue 08:22:26 AM 54.1304 -4.3556 291° West 460 529 36,000  Level FlightAware ADS-B
Tue 08:22:56 AM 54.1530 -4.4543 291° West 453 521 36,000  Level FlightAware ADS-B
Tue 08:23:45 AM 54.1901 -4.6184 291° West 488 562 36,000  Level FlightAware UK
Tue 08:23:58 AM 54.1998 -4.6599 291° West 444 511 36,000  Level FlightAware ADS-B (EPKK / KRK)
Tue 08:24:45 AM 54.2343 -4.8138 291° West 484 557 36,000  Level FlightAware UK
Tue 08:24:49 AM 54.2369 -4.8248 291° West 439 505 36,000 -167 Level FlightAware ADS-B (EPKK / KRK)
Tue 08:25:21 AM 54.2602 -4.9301 291° West 482 555 35,900  Descending FlightAware UK
Tue 08:25:35 AM 54.2708 -4.9763 291° West 438 504 36,000 97 Climbing FlightAware ADS-B (EPKK / KRK)
Tue 08:26:23 AM 54.3052 -5.1316 291° West 437 503 36,000  Level FlightAware ADS-B (EPKK / KRK)
Tue 08:27:09 AM 54.3380 -5.2801 291° West 434 499 36,000  Level FlightAware ADS-B (EPKK / KRK)
Tue 08:27:48 AM 54.3656 -5.4064 291° West 438 504 36,000  Level FlightAware ADS-B
Tue 08:28:22 AM 54.3876 -5.5072 291° West 437 503 36,000  Level FlightAware ADS-B
Tue 08:28:43 AM 54.4015 -5.5718 290° West 438 504 36,000  Level FlightAware ADS-B
Tue 08:29:17 AM 54.4235 -5.6735 290° West 438 504 36,000  Level FlightAware ADS-B
Tue 08:29:57 AM 54.4559 -5.8253 290° West 476 548 36,000  Level FlightAware UK
Tue 08:30:08 AM 54.4623 -5.8549 290° West 439 505 36,000  Level FlightAware ADS-B
Tue 08:30:49 AM 54.4921 -5.9948 290° West 440 506 36,000  Level FlightAware ADS-B
Tue 08:31:12 AM 54.5081 -6.0704 290° West 439 505 36,000  Level FlightAware ADS-B (EPKK / KRK)
Tue 08:31:49 AM 54.5333 -6.1901 290° West 443 510 36,000  Level FlightAware ADS-B
Tue 08:32:21 AM 54.5557 -6.2969 290° West 441 507 36,000  Level FlightAware ADS-B
Tue 08:32:51 AM 54.5764 -6.3966 290° West 442 509 36,000  Level FlightAware ADS-B
Tue 08:33:26 AM 54.6005 -6.5131 290° West 443 510 36,000  Level FlightAware ADS-B (EPKK / KRK)
Tue 08:33:57 AM 54.6210 -6.6124 290° West 444 511 36,000  Level FlightAware ADS-B
Tue 08:34:30 AM 54.6433 -6.7214 289° West 441 507 36,000  Level FlightAware ADS-B (EIDW / DUB)
Tue 08:34:41 AM 54.6511 -6.7594 290° West 441 507 36,000  Level FlightAware ADS-B (EIDW / DUB)
Tue 08:35:20 AM 54.6769 -6.8863 289° West 440 506 36,000  Level FlightAware ADS-B
Tue 08:35:51 AM 54.6972 -6.9868 289° West 437 503 36,000  Level FlightAware ADS-B
Tue 08:36:27 AM 54.7232 -7.1161 289° West 438 504 36,000  Level FlightAware ADS-B
Tue 08:37:03 AM 54.7459 -7.2298 289° West 440 506 36,000  Level FlightAware ADS-B
Tue 08:37:39 AM 54.7694 -7.3491 289° West 476 548 36,000 -85 Level FlightAware UK
Tue 08:38:14 AM 54.7929 -7.4687 289° West 478 550 35,900 -92 Descending FlightAware UK
Tue 08:38:44 AM 54.8125 -7.5688 289° West 478 550 35,900  Level FlightAware UK
Tue 08:39:14 AM 54.8321 -7.6686 289° West 476 548 35,900 100 Level FlightAware UK
Tue 08:39:44 AM 54.8516 -7.7683 289° West 476 548 36,000  Climbing FlightAware UK
Tue 08:40:14 AM 54.8710 -7.8683 289° West 476 548 35,900  Descending FlightAware UK
Tue 08:40:44 AM 54.8901 -7.9688 288° West 482 555 36,000  Climbing FlightAware UK
Tue 08:41:14 AM 54.9094 -8.0695 288° West 482 555 35,900 -100 Descending FlightAware UK
Tue 08:41:44 AM 54.9286 -8.1701 288° West 482 555 35,900  Level FlightAware UK
Tue 08:42:14 AM 54.9475 -8.2704 288° West 478 550 35,900  Level FlightAware UK
Tue 08:42:44 AM 54.9664 -8.3703 288° West 478 550 35,900  Level FlightAware UK
Tue 08:43:14 AM 54.9852 -8.4703 288° West 476 548 35,900  Level FlightAware UK
Tue 08:43:44 AM 55.0037 -8.5703 288° West 478 550 35,900  Level FlightAware UK
Tue 08:44:20 AM 55.0258 -8.6895 288° West 476 548 35,900  Level FlightAware UK
Tue 08:44:50 AM 55.0442 -8.7894 288° West 476 548 35,900 100 Level FlightAware UK
Tue 08:45:20 AM 55.0624 -8.8894 288° West 478 550 36,000 100 Climbing FlightAware UK
Tue 08:45:50 AM 55.0806 -8.9891 288° West 480 552 36,000  Level FlightAware UK
Tue 08:47:00 AM 55.1281 -9.2183 290° West  Level Estimated
Tue 08:54:00 AM 55.4041 -10.6045 290° West  Level Estimated
Tue 08:55:00 AM 55.4422 -10.8041 289° West  Level Estimated
Tue 08:56:00 AM 55.4800 -11.0041 289° West  Level Estimated
Tue 08:57:00 AM 55.5175 -11.2045 288° West  Level Estimated
Tue 08:58:00 AM 55.5546 -11.4052 288° West  Level Estimated
Tue 08:59:00 AM 55.5914 -11.6064 288° West  Level Estimated
Tue 09:00:00 AM 55.6279 -11.8079 288° West  Level Estimated
Tue 09:01:00 AM 55.6641 -12.0097 288° West  Level Estimated
Tue 09:02:00 AM 55.6999 -12.2120 288° West  Level Estimated
Tue 09:03:00 AM 55.7354 -12.4146 287° West  Level Estimated
Tue 09:04:00 AM 55.7706 -12.6176 287° West  Level Estimated
Tue 09:05:00 AM 55.8054 -12.8209 287° West  Level Estimated
Tue 09:06:00 AM 55.8399 -13.0246 287° West  Level Estimated
Tue 09:07:00 AM 55.8741 -13.2287 287° West  Level Estimated
Tue 09:08:00 AM 55.9079 -13.4332 287° West  Level Estimated
Tue 09:09:00 AM 55.9413 -13.6379 286° West  Level Estimated
Tue 09:10:00 AM 55.9745 -13.8431 286° West  Level Estimated
Tue 09:11:00 AM 56.0073 -14.0486 286° West  Level Estimated
Tue 09:12:00 AM 56.0397 -14.2544 286° West  Level Estimated
Tue 09:13:00 AM 56.0718 -14.4606 286° West  Level Estimated
Tue 09:14:00 AM 56.1036 -14.6671 285° West  Level Estimated
Tue 09:15:00 AM 56.1350 -14.8740 285° West  Level Estimated
Tue 09:16:00 AM 56.1661 -15.0812 285° West  Level Estimated
Tue 09:17:00 AM 56.1968 -15.2887 285° West  Level Estimated
Tue 09:18:00 AM 56.2271 -15.4962 285° West  Level Estimated
Tue 09:19:00 AM 56.2582 -15.7116 285° West  Level Estimated
Tue 09:20:00 AM 56.2889 -15.9274 284° West  Level Estimated
Tue 09:21:00 AM 56.3192 -16.1436 284° West  Level Estimated
Tue 09:22:00 AM 56.3492 -16.3601 284° West  Level Estimated
Tue 09:23:00 AM 56.3787 -16.5769 284° West  Level Estimated
Tue 09:24:00 AM 56.4079 -16.7941 284° West  Level Estimated
Tue 09:25:00 AM 56.4367 -17.0116 284° West  Level Estimated
Tue 09:26:00 AM 56.4644 -17.2234 283° West  Level Estimated
Tue 09:27:00 AM 56.4917 -17.4355 283° West  Level Estimated
Tue 09:28:00 AM 56.5186 -17.6479 283° West  Level Estimated
Tue 09:29:00 AM 56.5452 -17.8606 283° West  Level Estimated
Tue 09:30:00 AM 56.5714 -18.0736 283° West  Level Estimated
Tue 09:31:00 AM 56.5972 -18.2869 282° West  Level Estimated
Tue 09:32:00 AM 56.6227 -18.5005 282° West  Level Estimated
Tue 09:33:00 AM 56.6478 -18.7144 282° West  Level Estimated
Tue 09:34:00 AM 56.6725 -18.9285 282° West  Level Estimated
Tue 09:35:00 AM 56.6968 -19.1430 282° West  Level Estimated
Tue 09:36:00 AM 56.7208 -19.3577 282° West  Level Estimated
Tue 09:37:00 AM 56.7445 -19.5727 281° West  Level Estimated
Tue 09:38:00 AM 56.7677 -19.7879 281° West  Level Estimated
Tue 09:38:36 AM 56.0000 -20.0000 284° West 469 540 36,000  Level ETMS Enhanced Traffic Management System
Tue 09:39:00 AM 56.7906 -20.0034 281° West  Level Estimated
Tue 09:40:00 AM 56.8131 -20.2192 281° West  Level Estimated
Tue 09:41:00 AM 56.8353 -20.4353 281° West  Level Estimated
Tue 09:42:00 AM 56.8570 -20.6516 281° West  Level Estimated
Tue 09:43:00 AM 56.8784 -20.8681 280° West  Level Estimated
Tue 09:44:00 AM 56.1872 -21.3610 283° West 469 540 36,000  Level FlightAware Transoceanic
Tue 09:45:00 AM 56.2170 -21.5891 283° West 469 540 36,000  Level FlightAware Transoceanic
Tue 09:46:00 AM 56.2463 -21.8175 283° West 469 540 36,000  Level FlightAware Transoceanic
Tue 09:47:00 AM 56.2752 -22.0463 283° West 469 540 36,000  Level FlightAware Transoceanic
Tue 09:48:00 AM 56.3037 -22.2755 283° West 469 540 36,000  Level FlightAware Transoceanic
Tue 09:49:00 AM 56.3317 -22.5050 282° West 469 540 36,000  Level FlightAware Transoceanic
Tue 09:50:00 AM 56.3593 -22.7348 282° West 469 540 36,000  Level FlightAware Transoceanic
Tue 09:51:00 AM 56.3866 -22.9649 282° West 469 540 36,000  Level FlightAware Transoceanic
Tue 09:52:00 AM 56.4133 -23.1954 282° West 469 540 36,000  Level FlightAware Transoceanic
Tue 09:53:00 AM 56.4397 -23.4262 282° West 469 540 36,000  Level FlightAware Transoceanic
Tue 09:54:00 AM 56.4656 -23.6573 281° West 469 540 36,000  Level FlightAware Transoceanic
Tue 09:55:00 AM 56.4911 -23.8887 281° West 469 540 36,000  Level FlightAware Transoceanic
Tue 09:56:00 AM 56.5161 -24.1205 281° West 469 540 36,000  Level FlightAware Transoceanic
Tue 09:57:00 AM 56.5408 -24.3525 281° West 469 540 36,000  Level FlightAware Transoceanic
Tue 09:58:00 AM 56.5650 -24.5849 281° West 469 540 36,000  Level FlightAware Transoceanic
Tue 09:59:00 AM 56.5887 -24.8175 280° West 469 540 36,000  Level FlightAware Transoceanic
Tue 10:00:00 AM 56.6121 -25.0504 280° West 469 540 36,000  Level FlightAware Transoceanic
Tue 10:01:00 AM 56.6349 -25.2836 280° West 469 540 36,000  Level FlightAware Transoceanic
Tue 10:02:00 AM 56.6574 -25.5171 280° West 469 540 36,000  Level FlightAware Transoceanic
Tue 10:03:00 AM 56.6794 -25.7509 280° West 469 540 36,000  Level FlightAware Transoceanic
Tue 10:04:00 AM 56.7010 -25.9849 279° West 469 540 36,000  Level FlightAware Transoceanic
Tue 10:05:00 AM 56.7221 -26.2192 279° West 469 540 36,000  Level FlightAware Transoceanic
Tue 10:06:00 AM 56.7428 -26.4538 279° West 469 540 36,000  Level FlightAware Transoceanic
Tue 10:07:00 AM 56.7631 -26.6886 279° West 469 540 36,000  Level FlightAware Transoceanic
Tue 10:08:00 AM 56.7829 -26.9237 279° West 469 540 36,000  Level FlightAware Transoceanic
Tue 10:09:00 AM 56.8023 -27.1590 278° West 469 540 36,000  Level FlightAware Transoceanic
Tue 10:10:00 AM 56.8212 -27.3945 278° West 469 540 36,000  Level FlightAware Transoceanic
Tue 10:11:00 AM 56.8397 -27.6303 278° West 469 540 36,000  Level FlightAware Transoceanic
Tue 10:12:00 AM 56.8577 -27.8663 278° West 469 540 36,000  Level FlightAware Transoceanic
Tue 10:13:00 AM 56.8753 -28.1026 278° West 469 540 36,000  Level FlightAware Transoceanic
Tue 10:14:00 AM 56.8925 -28.3390 277° West 469 540 36,000  Level FlightAware Transoceanic
Tue 10:15:00 AM 56.9092 -28.5757 277° West 469 540 36,000  Level FlightAware Transoceanic
Tue 10:16:00 AM 56.9255 -28.8126 277° West 469 540 36,000  Level FlightAware Transoceanic
Tue 10:17:00 AM 56.9413 -29.0497 277° West 469 540 36,000  Level FlightAware Transoceanic
Tue 10:18:00 AM 56.9566 -29.2870 277° West 469 540 36,000  Level FlightAware Transoceanic
Tue 10:19:00 AM 56.9715 -29.5245 276° West 469 540 36,000  Level FlightAware Transoceanic
Tue 10:20:00 AM 56.9860 -29.7621 276° West 469 540 36,000  Level FlightAware Transoceanic
Tue 10:21:00 AM 56.9989 -29.9816 276° West  Level FlightAware Approximate
Tue 10:22:00 AM 57.0115 -30.2013 276° West  Level FlightAware Approximate
Tue 10:23:00 AM 57.0068 -30.1835 274° West  Level FlightAware Approximate
Tue 10:24:00 AM 57.0146 -30.4040 274° West  Level FlightAware Approximate
Tue 10:25:00 AM 57.0221 -30.6245 274° West  Level FlightAware Approximate
Tue 10:26:00 AM 57.0291 -30.8451 273° West  Level FlightAware Approximate
Tue 10:27:00 AM 57.0358 -31.0658 273° West  Level FlightAware Approximate
Tue 10:28:00 AM 57.0420 -31.2865 273° West  Level FlightAware Approximate
Tue 10:29:00 AM 57.0479 -31.5074 273° West  Level FlightAware Approximate
Tue 10:30:00 AM 57.0534 -31.7283 273° West  Level FlightAware Approximate
Tue 10:31:00 AM 57.0585 -31.9492 273° West  Level FlightAware Approximate
Tue 10:32:00 AM 57.0633 -32.1702 272° West  Level FlightAware Approximate
Tue 10:33:00 AM 57.0676 -32.3913 272° West  Level FlightAware Approximate
Tue 10:34:00 AM 57.0715 -32.6124 272° West  Level FlightAware Approximate
Tue 10:35:00 AM 57.0751 -32.8336 272° West  Level FlightAware Approximate
Tue 10:36:00 AM 57.0782 -33.0548 272° West  Level FlightAware Approximate
Tue 10:37:00 AM 57.0810 -33.2761 271° West  Level FlightAware Approximate
Tue 10:38:00 AM 57.0834 -33.4973 271° West  Level FlightAware Approximate
Tue 10:39:00 AM 57.0854 -33.7187 271° West  Level FlightAware Approximate
Tue 10:40:00 AM 57.0870 -33.9400 271° West  Level FlightAware Approximate
Tue 10:41:00 AM 57.0882 -34.1613 271° West  Level FlightAware Approximate
Tue 10:42:00 AM 57.0890 -34.3827 270° West  Level FlightAware Approximate
Tue 10:43:00 AM 57.0894 -34.6040 270° West  Level FlightAware Approximate
Tue 10:44:00 AM 57.0895 -34.8254 270° West  Level FlightAware Approximate
Tue 10:45:00 AM 57.0891 -35.0467 270° West  Level FlightAware Approximate
Tue 10:46:00 AM 57.0884 -35.2681 270° West  Level FlightAware Approximate
Tue 10:47:00 AM 57.0873 -35.4894 270° West  Level FlightAware Approximate
Tue 10:48:00 AM 57.0857 -35.7108 269° West  Level FlightAware Approximate
Tue 10:49:00 AM 57.0838 -35.9321 269° West  Level FlightAware Approximate
Tue 10:50:00 AM 57.0815 -36.1534 269° West  Level FlightAware Approximate
Tue 10:51:00 AM 57.0788 -36.3746 269° West  Level FlightAware Approximate
Tue 10:52:00 AM 57.0758 -36.5958 269° West  Level FlightAware Approximate
Tue 10:53:00 AM 57.0723 -36.8170 268° West  Level FlightAware Approximate
Tue 10:54:00 AM 57.0685 -37.0381 268° West  Level FlightAware Approximate
Tue 10:54:44 AM 57.0500 -38.3167 268° West 510 587 36,000  Level Gander Center
Tue 10:55:00 AM 57.0651 -37.2593 269° West  Level FlightAware Approximate
Tue 10:55:44 AM 57.0500 -38.5667 270° West 510 587 36,000  Level Gander Center
Tue 10:56:00 AM 57.0621 -37.4804 269° West  Level FlightAware Approximate
Tue 10:56:44 AM 57.0500 -38.8333 270° West 510 587 36,000  Level Gander Center
Tue 10:57:00 AM 57.0587 -37.7015 268° West  Level FlightAware Approximate
Tue 10:57:44 AM 57.0333 -39.0833 263° West 510 587 36,000  Level Gander Center
Tue 10:58:00 AM 57.0549 -37.9226 268° West  Level FlightAware Approximate
Tue 10:58:44 AM 57.0333 -39.3500 270° West 510 587 36,000  Level Gander Center
Tue 10:59:00 AM 57.0507 -38.1436 268° West  Level FlightAware Approximate
Tue 10:59:44 AM 57.0167 -39.6000 263° West 510 587 36,000  Level Gander Center
Tue 11:00:00 AM 57.0461 -38.3646 268° West  Level FlightAware Approximate
Tue 11:00:44 AM 57.0167 -39.8333 270° West 500 575 36,000  Level Gander Center
Tue 11:01:44 AM 57.0167 -40.1167 270° West 500 575 36,000  Level Gander Center
Tue 11:02:44 AM 57.0333 -40.3667 277° West 500 575 36,000  Level Gander Center
Tue 11:03:44 AM 57.0333 -40.6000 270° West 500 575 36,000  Level Gander Center
Tue 11:04:44 AM 57.0500 -40.8500 277° West 500 575 36,000  Level Gander Center
Tue 11:05:44 AM 57.0500 -41.1000 270° West 500 575 36,000  Level Gander Center
Tue 11:06:44 AM 57.0500 -41.3500 270° West 500 575 36,000  Level Gander Center
Tue 11:07:44 AM 57.0667 -41.6167 277° West 500 575 36,000  Level Gander Center
Tue 11:08:44 AM 57.0667 -41.8667 270° West 490 564 36,000  Level Gander Center
Tue 11:09:44 AM 57.0667 -42.1167 270° West 490 564 36,000  Level Gander Center
Tue 11:10:44 AM 57.0667 -42.3667 270° West 490 564 36,000  Level Gander Center
Tue 11:11:44 AM 57.1000 -42.6000 285° West 490 564 36,000  Level Gander Center
Tue 11:12:44 AM 57.1000 -42.8500 270° West 490 564 36,000  Level Gander Center
Tue 11:13:44 AM 57.1000 -43.1000 270° West 490 564 36,000  Level Gander Center
Tue 11:14:44 AM 57.1000 -43.3500 270° West 480 552 36,000  Level Gander Center
Tue 11:15:44 AM 57.1000 -43.6000 270° West 480 552 36,000  Level Gander Center
Tue 11:16:44 AM 57.1000 -43.8333 270° West 470 541 36,000  Level Gander Center
Tue 11:17:44 AM 57.1167 -44.0667 278° West 470 541 36,000  Level Gander Center
Tue 11:18:44 AM 57.1167 -44.3000 270° West 470 541 36,000  Level Gander Center
Tue 11:19:44 AM 57.1167 -44.5500 270° West 470 541 36,000  Level Gander Center
Tue 11:20:44 AM 57.1000 -44.7667 262° West 460 529 36,000  Level Gander Center
Tue 11:21:44 AM 57.1167 -45.0167 277° West 460 529 36,000  Level Gander Center
Tue 11:22:44 AM 57.1167 -45.2333 270° West 460 529 36,000  Level Gander Center
Tue 11:23:44 AM 57.1167 -45.4833 270° West 460 529 36,000  Level Gander Center
Tue 11:24:44 AM 57.1000 -45.7000 262° West 460 529 36,000  Level Gander Center
Tue 11:25:44 AM 57.1000 -45.9667 270° West 460 529 36,000  Level Gander Center
Tue 11:26:44 AM 57.1167 -46.2000 278° West 460 529 36,000  Level Gander Center
Tue 11:27:44 AM 57.1000 -46.4333 263° West 460 529 36,000  Level Gander Center
Tue 11:28:44 AM 57.1000 -46.6500 270° West 460 529 36,000  Level Gander Center
Tue 11:29:44 AM 57.0833 -46.9000 263° West 460 529 36,000  Level Gander Center
Tue 11:30:44 AM 57.1000 -47.1167 278° West 450 518 36,000  Level Gander Center
Tue 11:31:44 AM 57.0833 -47.3667 263° West 450 518 36,000  Level Gander Center
Tue 11:32:44 AM 57.0833 -47.5833 270° West 450 518 36,000 600 Level Gander Center
Tue 11:33:44 AM 57.0833 -47.8000 270° West 440 506 37,200 950 Climbing Gander Center
Tue 11:34:44 AM 57.0833 -48.0333 270° West 440 506 37,900 400 Climbing Gander Center
Tue 11:35:44 AM 57.0667 -48.2500 262° West 440 506 38,000 50 Climbing Gander Center
Tue 11:36:44 AM 57.0667 -48.4667 270° West 440 506 38,000  Level Gander Center
Tue 11:37:44 AM 57.0667 -48.6833 270° West 440 506 38,000  Level Gander Center
Tue 11:38:44 AM 57.0500 -48.9000 262° West 440 506 38,000  Level Gander Center
Tue 11:39:44 AM 57.0333 -49.1500 263° West 440 506 38,000  Level Gander Center
Tue 11:40:44 AM 57.0333 -49.3667 270° West 450 518 38,000  Level Gander Center
Tue 11:41:44 AM 57.0333 -49.6000 270° West 440 506 38,000  Level Gander Center
Tue 11:42:44 AM 57.0167 -49.8167 262° West 440 506 38,000  Level Gander Center
Tue 11:43:36 AM 57.0000 -50.0333 262° West 440 506 38,000  Level Gander Center
Tue 11:44:36 AM 56.9667 -50.2333 253° West 440 506 38,000  Level Gander Center
Tue 11:46:00 AM 56.9064 -50.4992 248° West  Level FlightAware Approximate
Tue 11:53:00 AM 56.5634 -51.9528 247° West  Level FlightAware Approximate
Tue 11:54:00 AM 56.5130 -52.1583 246° West  Level FlightAware Approximate
Tue 11:55:00 AM 56.4623 -52.3633 246° West  Level FlightAware Approximate
Tue 11:56:00 AM 56.4113 -52.5676 246° West  Level FlightAware Approximate
Tue 11:57:00 AM 56.3599 -52.7715 246° West  Level FlightAware Approximate
Tue 11:57:35 AM 56.4667 -52.8333 245° Southwest 400 460 38,000  Level Gander Center
Tue 11:58:00 AM 56.3082 -52.9748 245° Southwest  Level FlightAware Approximate
Tue 11:58:35 AM 56.4333 -53.0000 250° West 400 460 38,000  Level Gander Center
Tue 11:59:00 AM 56.2561 -53.1775 245° Southwest  Level FlightAware Approximate
Tue 11:59:35 AM 56.4000 -53.1833 252° West 390 449 38,000  Level Gander Center
Tue 12:00:00 PM 56.2038 -53.3797 245° Southwest  Level FlightAware Approximate
Tue 12:00:35 PM 56.3667 -53.3833 253° West 390 449 38,000  Level Gander Center
Tue 12:01:00 PM 56.1510 -53.5813 245° Southwest  Level FlightAware Approximate
Tue 12:01:35 PM 56.3167 -53.5667 244° Southwest 390 449 38,000  Level Gander Center
Tue 12:02:00 PM 56.0980 -53.7824 245° Southwest  Level FlightAware Approximate
Tue 12:02:35 PM 56.2833 -53.7167 248° West 390 449 38,000  Level Gander Center
Tue 12:03:00 PM 56.0447 -53.9829 245° Southwest  Level FlightAware Approximate
Tue 12:03:35 PM 56.2333 -53.9167 246° West 390 449 38,000  Level Gander Center
Tue 12:04:35 PM 56.2000 -54.1000 252° West 400 460 38,000  Level Gander Center
Tue 12:05:35 PM 56.1667 -54.2833 252° West 400 460 38,000  Level Gander Center
Tue 12:06:35 PM 56.1167 -54.4833 246° West 400 460 38,000  Level Gander Center
Tue 12:08:00 PM 56.0512 -54.7749 248° West  Level FlightAware Approximate
Tue 12:14:35 PM 55.7833 -55.9333 232° Southwest 390 449 38,000  Level Gander Center
Tue 12:15:00 PM 55.7155 -56.1992 248° West  Level FlightAware Approximate
Tue 12:15:35 PM 55.7500 -56.1167 252° West 390 449 38,000  Level Gander Center
Tue 12:16:00 PM 55.6662 -56.4007 247° West  Level FlightAware Approximate
Tue 12:16:35 PM 55.7000 -56.2667 239° Southwest 390 449 38,000  Level Gander Center
Tue 12:17:00 PM 55.6165 -56.6016 246° West  Level FlightAware Approximate
Tue 12:17:35 PM 55.6667 -56.4500 252° West 390 449 38,000  Level Gander Center
Tue 12:18:00 PM 55.5665 -56.8020 246° West  Level FlightAware Approximate
Tue 12:18:35 PM 55.6167 -56.6333 244° Southwest 390 449 38,000  Level Gander Center
Tue 12:19:00 PM 55.5167 -57.0020 270° West  Level FlightAware Approximate
Tue 12:19:35 PM 55.5667 -56.8167 244° Southwest 390 449 38,000  Level Gander Center
Tue 12:20:00 PM 55.4462 -57.1782 232° Southwest  Level FlightAware Approximate
Tue 12:20:35 PM 55.5333 -56.9667 249° West 390 449 38,000  Level Gander Center
Tue 12:21:35 PM 55.4833 -57.1500 244° Southwest 390 449 38,000  Level Gander Center
Tue 12:22:35 PM 55.4500 -57.3333 252° West 390 449 38,000  Level Gander Center
Tue 12:23:35 PM 55.4333 -57.5167 261° West 390 449 38,000  Level Gander Center
Tue 12:24:35 PM 55.3833 -57.7167 246° West 400 460 38,000  Level Gander Center
Tue 12:25:35 PM 55.3500 -57.9000 252° West 400 460 38,000  Level Gander Center
Tue 12:26:35 PM 55.3333 -58.0833 261° West 400 460 38,000  Level Gander Center
Tue 12:27:35 PM 55.3000 -58.2667 252° West 400 460 38,000  Level Gander Center
Tue 12:28:35 PM 55.2667 -58.4667 254° West 400 460 38,000  Level Gander Center
Tue 12:29:35 PM 55.2333 -58.6500 252° West 400 460 38,000  Level Gander Center
Tue 12:30:35 PM 55.2167 -58.8167 260° West 400 460 38,000  Level Gander Center
Tue 12:31:35 PM 55.1833 -59.0333 255° West 400 460 38,000  Level Gander Center
Tue 12:32:35 PM 55.1500 -59.2000 251° West 410 472 38,000  Level Gander Center
Tue 12:33:35 PM 55.1167 -59.4167 255° West 410 472 38,000  Level Gander Center
Tue 12:34:35 PM 55.0667 -59.5833 242° Southwest 410 472 38,000  Level Gander Center
Tue 12:35:35 PM 55.0333 -59.8000 255° West 410 472 38,000  Level Gander Center
Tue 12:36:35 PM 55.0167 -59.9667 260° West 420 483 38,000  Level Gander Center
Tue 12:37:35 PM 54.9833 -60.1833 255° West 420 483 38,000  Level Gander Center
Tue 12:38:35 PM 54.9333 -60.3500 242° Southwest 430 495 38,000  Level Gander Center
Tue 12:39:35 PM 54.9000 -60.5833 256° West 430 495 38,000  Level Gander Center
Tue 12:40:35 PM 54.8667 -60.7667 253° West 430 495 38,000  Level Gander Center
Tue 12:41:35 PM 54.8333 -60.9667 254° West 430 495 38,000  Level Gander Center
Tue 12:42:35 PM 54.7833 -61.1667 247° West 430 495 38,000  Level Gander Center
Tue 12:43:35 PM 54.7500 -61.3333 251° West 430 495 38,000  Level Gander Center
Tue 12:44:35 PM 54.7167 -61.5667 256° West 440 506 38,000  Level Gander Center
Tue 12:45:35 PM 54.6833 -61.7500 253° West 440 506 38,000  Level Gander Center
Tue 12:46:35 PM 54.6333 -61.9667 248° West 440 506 38,000  Level Gander Center
Tue 12:47:35 PM 54.6000 -62.1500 253° West 440 506 38,000  Level Gander Center
Tue 12:48:35 PM 54.5667 -62.3500 254° West 440 506 38,000  Level Gander Center
Tue 12:49:35 PM 54.5167 -62.5500 247° West 440 506 38,000  Level Gander Center
Tue 12:50:35 PM 54.4667 -62.7500 247° West 440 506 38,000  Level Gander Center
Tue 12:51:35 PM 54.4333 -62.9500 254° West 430 495 38,000  Level Gander Center
Tue 12:52:35 PM 54.3833 -63.1500 247° West 430 495 38,000  Level Gander Center
Tue 12:53:35 PM 54.3500 -63.3500 254° West 430 495 38,000  Level Gander Center
Tue 12:54:35 PM 54.3167 -63.5167 251° West 440 506 38,000  Level Gander Center
Tue 12:55:35 PM 54.2500 -63.7167 240° Southwest 440 506 38,000  Level Gander Center
Tue 12:56:35 PM 54.2167 -63.9167 254° West 440 506 38,000  Level Gander Center
Tue 12:57:35 PM 54.1833 -64.1167 254° West 440 506 38,000  Level Gander Center
Tue 12:58:35 PM 54.1500 -64.3000 253° West 440 506 38,000  Level Gander Center
Tue 12:59:35 PM 54.0833 -64.5000 240° Southwest 440 506 38,000  Level Gander Center
Tue 01:00:35 PM 54.0500 -64.7000 254° West 440 506 38,000  Level Gander Center
Tue 01:01:35 PM 54.0000 -64.9000 247° West 430 495 38,000  Level Gander Center
Tue 01:02:35 PM 53.9500 -65.0833 245° Southwest 430 495 38,000  Level Gander Center
Tue 01:03:35 PM 53.9167 -65.2500 251° West 430 495 38,000  Level Gander Center
Tue 01:04:35 PM 53.8833 -65.4500 254° West 430 495 38,000  Level Gander Center
Tue 01:05:35 PM 53.8167 -65.6500 241° Southwest 430 495 38,000  Level Gander Center
Tue 01:06:35 PM 53.7833 -65.8333 253° West 440 506 38,000  Level Gander Center
Tue 01:07:35 PM 53.7333 -66.0333 247° West 440 506 38,000  Level Gander Center
Tue 01:08:35 PM 53.6833 -66.2167 245° Southwest 440 506 38,000  Level Gander Center
Tue 01:09:35 PM 53.6333 -66.4167 247° West 440 506 38,000  Level Gander Center
Tue 01:10:35 PM 53.6000 -66.6167 254° West 440 506 38,000  Level Gander Center
Tue 01:11:35 PM 53.5333 -66.8333 243° Southwest 440 506 38,000  Level Gander Center
Tue 01:12:35 PM 53.5000 -66.9833 250° West 450 518 38,000  Level Gander Center
Tue 01:13:35 PM 53.4500 -67.2167 250° West 450 518 38,000  Level Gander Center
Tue 01:14:35 PM 53.4167 -67.4000 253° West 450 518 38,000  Level Gander Center
Tue 01:15:35 PM 53.3500 -67.5833 239° Southwest 450 518 38,000  Level Gander Center
Tue 01:16:35 PM 53.3000 -67.7833 247° West 440 506 38,000  Level Gander Center
Tue 01:17:35 PM 53.2667 -67.9667 253° West 450 518 38,000  Level Gander Center
Tue 01:18:35 PM 53.2167 -68.1500 246° West 440 506 38,000  Level Gander Center
Tue 01:19:35 PM 53.1667 -68.3500 247° West 440 506 38,000  Level Gander Center
Tue 01:20:35 PM 53.1333 -68.5333 253° West 440 506 38,000  Level Gander Center
Tue 01:21:35 PM 53.0833 -68.7167 246° West 440 506 38,000  Level Gander Center
Tue 01:22:35 PM 53.0333 -68.9167 247° West 440 506 38,000  Level Gander Center
Tue 01:23:35 PM 52.9833 -69.1000 246° West 440 506 38,000  Level Gander Center
Tue 01:24:35 PM 52.9333 -69.2833 246° West 440 506 38,000  Level Gander Center
Tue 01:25:35 PM 52.8833 -69.4667 246° West 440 506 38,000  Level Gander Center
Tue 01:26:52 PM 52.8167 -69.6833 243° Southwest 440 506 38,000  Level Montreal Center
Tue 01:27:52 PM 52.7833 -69.8667 253° West 450 518 38,000  Level Montreal Center
Tue 01:28:52 PM 52.7167 -70.0333 237° Southwest 450 518 38,000  Level Montreal Center
Tue 01:29:52 PM 52.6833 -70.2333 255° West 440 506 38,000  Level Montreal Center
Tue 01:30:52 PM 52.6167 -70.4167 239° Southwest 440 506 38,000  Level Montreal Center
Tue 01:31:52 PM 52.5833 -70.6167 255° West 440 506 38,000  Level Montreal Center
Tue 01:32:52 PM 52.5167 -70.7833 237° Southwest 440 506 38,000  Level Montreal Center
Tue 01:33:52 PM 52.4833 -70.9833 255° West 440 506 38,000  Level Montreal Center
Tue 01:34:52 PM 52.4167 -71.1667 239° Southwest 450 518 38,000  Level Montreal Center
Tue 01:35:52 PM 52.3667 -71.3500 246° West 440 506 38,000  Level Montreal Center
Tue 01:36:52 PM 52.3167 -71.5500 248° West 450 518 38,000  Level Montreal Center
Tue 01:37:52 PM 52.2667 -71.7333 246° West 440 506 38,000  Level Montreal Center
Tue 01:38:52 PM 52.2167 -71.9000 244° Southwest 440 506 38,000  Level Montreal Center
Tue 01:39:52 PM 52.1667 -72.1000 248° West 450 518 38,000  Level Montreal Center
Tue 01:40:52 PM 52.1000 -72.2667 237° Southwest 440 506 38,000  Level Montreal Center
Tue 01:41:52 PM 52.0500 -72.4667 248° West 440 506 38,000  Level Montreal Center
Tue 01:42:52 PM 52.0000 -72.6333 244° Southwest 450 518 38,000  Level Montreal Center
Tue 01:43:52 PM 51.9500 -72.8167 246° West 450 518 38,000  Level Montreal Center
Tue 01:44:52 PM 51.8833 -73.0167 242° Southwest 450 518 38,000  Level Montreal Center
Tue 01:45:52 PM 51.8333 -73.1833 244° Southwest 450 518 38,000  Level Montreal Center
Tue 01:46:52 PM 51.7833 -73.3833 248° West 450 518 38,000  Level Montreal Center
Tue 01:47:52 PM 51.7167 -73.5500 237° Southwest 450 518 38,000  Level Montreal Center
Tue 01:48:52 PM 51.6667 -73.7167 244° Southwest 450 518 38,000  Level Montreal Center
Tue 01:49:52 PM 51.6000 -73.9000 240° Southwest 450 518 38,000  Level Montreal Center
Tue 01:50:52 PM 51.5500 -74.1000 248° West 450 518 38,000  Level Montreal Center
Tue 01:51:52 PM 51.5000 -74.2833 246° West 450 518 38,000  Level Montreal Center
Tue 01:52:52 PM 51.4333 -74.4500 237° Southwest 450 518 38,000  Level Montreal Center
Tue 01:53:52 PM 51.3833 -74.6500 248° West 450 518 38,000  Level Montreal Center
Tue 01:54:52 PM 51.3167 -74.8000 235° Southwest 450 518 38,000  Level Montreal Center
Tue 01:55:52 PM 51.2667 -75.0000 248° West 450 518 38,000  Level Montreal Center
Tue 01:56:52 PM 51.1833 -75.1667 231° Southwest 450 518 38,000  Level Montreal Center
Tue 01:57:52 PM 51.1000 -75.3167 229° Southwest 450 518 38,000  Level Montreal Center
Tue 01:58:52 PM 51.0333 -75.4833 238° Southwest 450 518 38,000  Level Montreal Center
Tue 01:59:52 PM 50.9500 -75.6167 225° Southwest 450 518 38,000  Level Montreal Center
Tue 02:00:52 PM 50.8833 -75.7833 238° Southwest 450 518 38,000  Level Montreal Center
Tue 02:01:52 PM 50.8000 -75.9333 229° Southwest 450 518 38,000  Level Montreal Center
Tue 02:02:52 PM 50.7167 -76.1000 232° Southwest 450 518 38,000  Level Montreal Center
Tue 02:03:52 PM 50.6500 -76.2500 235° Southwest 450 518 38,000  Level Montreal Center
Tue 02:04:52 PM 50.5667 -76.4167 232° Southwest 450 518 38,000  Level Montreal Center
Tue 02:05:52 PM 50.4833 -76.5667 229° Southwest 450 518 38,000  Level Montreal Center
Tue 02:06:52 PM 50.4167 -76.7333 238° Southwest 450 518 38,000  Level Montreal Center
Tue 02:07:52 PM 50.3167 -76.8667 220° Southwest 450 518 38,000  Level Montreal Center
Tue 02:08:52 PM 50.2333 -77.0167 229° Southwest 460 529 38,000  Level Montreal Center
Tue 02:09:52 PM 50.1500 -77.1667 229° Southwest 460 529 38,000  Level Montreal Center
Tue 02:10:52 PM 50.0833 -77.3333 238° Southwest 460 529 38,000  Level Montreal Center
Tue 02:11:52 PM 50.0000 -77.5167 235° Southwest 460 529 38,000  Level Montreal Center
Tue 02:12:52 PM 49.9167 -77.6333 222° Southwest 460 529 38,000  Level Montreal Center
Tue 02:13:52 PM 49.8333 -77.8167 235° Southwest 460 529 38,000  Level Montreal Center
Tue 02:14:52 PM 49.7333 -77.9667 224° Southwest 460 529 38,000  Level Montreal Center
Tue 02:15:52 PM 49.6667 -78.1167 236° Southwest 470 541 38,000  Level Montreal Center
Tue 02:16:52 PM 49.5833 -78.2667 229° Southwest 460 529 38,000  Level Montreal Center
Tue 02:17:52 PM 49.5000 -78.4000 226° Southwest 460 529 38,000  Level Montreal Center
Tue 02:18:52 PM 49.4000 -78.5833 230° Southwest 460 529 38,000  Level Montreal Center
Tue 02:19:52 PM 49.3167 -78.7000 222° Southwest 460 529 38,000  Level Montreal Center
Tue 02:20:52 PM 49.2500 -78.8833 241° Southwest 450 518 38,000  Level Montreal Center
Tue 02:21:52 PM 49.1833 -79.0000 229° Southwest 450 518 38,000  Level Montreal Center
Tue 02:22:52 PM 49.0833 -79.1833 230° Southwest 460 529 38,000  Level Montreal Center
Tue 02:23:52 PM 49.0000 -79.3167 226° Southwest 450 518 38,000  Level Montreal Center
Tue 02:24:52 PM 48.9167 -79.4500 226° Southwest 450 518 38,000  Level Montreal Center
Tue 02:25:52 PM 48.8333 -79.6000 230° Southwest 440 506 38,000  Level Montreal Center
Tue 02:26:52 PM 48.7500 -79.7333 227° Southwest 440 506 38,000  Level Montreal Center
Tue 02:27:52 PM 48.6833 -79.8667 233° Southwest 440 506 38,000  Level Montreal Center
Tue 02:28:52 PM 48.5833 -80.0000 221° Southwest 440 506 38,000  Level Montreal Center
Tue 02:29:52 PM 48.5167 -80.1500 236° Southwest 440 506 38,000  Level Montreal Center
Tue 02:30:52 PM 48.4333 -80.3000 230° Southwest 440 506 38,000  Level Montreal Center
Tue 02:31:52 PM 48.3333 -80.4167 218° Southwest 440 506 38,000  Level Montreal Center
Tue 02:32:52 PM 48.2667 -80.5667 236° Southwest 440 506 38,000  Level Montreal Center
Tue 02:33:52 PM 48.1833 -80.7000 227° Southwest 440 506 38,000  Level Montreal Center
Tue 02:34:57 PM 48.1000 -80.8333 227° Southwest 440 506 38,000  Level Toronto Center
Tue 02:35:57 PM 48.0167 -80.9833 230° Southwest 430 495 38,000  Level Toronto Center
Tue 02:36:57 PM 47.9667 -81.1167 241° Southwest 430 495 38,000  Level Toronto Center
Tue 02:37:57 PM 47.8833 -81.2667 230° Southwest 430 495 38,000  Level Toronto Center
Tue 02:38:57 PM 47.8333 -81.4167 244° Southwest 430 495 38,000  Level Toronto Center
Tue 02:39:57 PM 47.7500 -81.5667 230° Southwest 430 495 38,000  Level Toronto Center
Tue 02:40:57 PM 47.7000 -81.7167 244° Southwest 430 495 38,000  Level Toronto Center
Tue 02:41:57 PM 47.6167 -81.8500 227° Southwest 430 495 38,000  Level Toronto Center
Tue 02:42:57 PM 47.5500 -82.0000 237° Southwest 430 495 38,000  Level Toronto Center
Tue 02:43:57 PM 47.4833 -82.1500 237° Southwest 430 495 38,000  Level Toronto Center
Tue 02:44:57 PM 47.4167 -82.3000 237° Southwest 430 495 38,000  Level Toronto Center
Tue 02:45:57 PM 47.3333 -82.4167 224° Southwest 430 495 38,000  Level Toronto Center
Tue 02:46:57 PM 47.2333 -82.5333 218° Southwest 440 506 38,000  Level Toronto Center
Tue 02:47:57 PM 47.1500 -82.6167 214° Southwest 440 506 38,000  Level Toronto Center
Tue 02:48:57 PM 47.0333 -82.7333 214° Southwest 440 506 38,000  Level Toronto Center
Tue 02:49:57 PM 46.9333 -82.8500 219° Southwest 430 495 38,000  Level Toronto Center
Tue 02:50:57 PM 46.8500 -82.9500 219° Southwest 430 495 38,000  Level Toronto Center
Tue 02:51:57 PM 46.7500 -83.0667 219° Southwest 440 506 38,000  Level Toronto Center
Tue 02:52:57 PM 46.6667 -83.1833 224° Southwest 440 506 38,000  Level Toronto Center
Tue 02:53:57 PM 46.5500 -83.3000 215° Southwest 440 506 38,000  Level Toronto Center
Tue 02:54:57 PM 46.4667 -83.3833 215° Southwest 440 506 38,000  Level Toronto Center
Tue 02:55:57 PM 46.3667 -83.5000 219° Southwest 440 506 38,000  Level Toronto Center
Tue 02:56:57 PM 46.2667 -83.6167 219° Southwest 440 506 38,000  Level Toronto Center
Tue 02:57:57 PM 46.1833 -83.7000 215° Southwest 440 506 38,000  Level Toronto Center
Tue 02:58:57 PM 46.0667 -83.8167 215° Southwest 440 506 38,000  Level Toronto Center
Tue 02:59:57 PM 45.9833 -83.9333 224° Southwest 440 506 38,000  Level Toronto Center
Tue 03:00:57 PM 45.8833 -84.0333 215° Southwest 440 506 38,000  Level Toronto Center
Tue 03:01:57 PM 45.7833 -84.1500 219° Southwest 440 506 38,000  Level Toronto Center
Tue 03:02:57 PM 45.6833 -84.2333 210° Southwest 440 506 38,000  Level Toronto Center
Tue 03:03:57 PM 45.5833 -84.3500 219° Southwest 440 506 38,000  Level Toronto Center
Tue 03:04:57 PM 45.5000 -84.4667 224° Southwest 440 506 38,000  Level Toronto Center
Tue 03:05:57 PM 45.4000 -84.5667 215° Southwest 440 506 38,000  Level Toronto Center
Tue 03:06:57 PM 45.3000 -84.6667 215° Southwest 440 506 38,000  Level Toronto Center
Tue 03:07:57 PM 45.1833 -84.7167 197° South 450 518 38,000  Level Toronto Center
Tue 03:08:57 PM 45.0500 -84.7833 199° South 460 529 38,000  Level Toronto Center
Tue 03:09:57 PM 44.9333 -84.8167 191° South 460 529 38,000  Level Toronto Center
Tue 03:10:57 PM 44.8000 -84.8500 190° South 460 529 38,000  Level Toronto Center
Tue 03:11:57 PM 44.6833 -84.8833 191° South 460 529 38,000  Level Toronto Center
Tue 03:12:57 PM 44.5667 -84.9167 192° South 460 529 38,000 -150 Level Toronto Center
Tue 03:13:57 PM 44.4333 -84.9833 200° South 460 529 37,700 -700 Descending Toronto Center
Tue 03:14:57 PM 44.3000 -85.0167 190° South 460 529 36,600 -1,100 Descending Toronto Center
Tue 03:15:57 PM 44.1833 -85.0500 192° South 470 541 35,500 -1,150 Descending Toronto Center
Tue 03:16:57 PM 44.0667 -85.0833 192° South 470 541 34,300 -1,250 Descending Toronto Center
Tue 03:17:57 PM 43.9333 -85.1500 200° South 480 552 33,000 -1,067 Descending Toronto Center
Tue 03:18:27 PM 43.8986 -85.1503 180° South 474 545 32,700 -645 Descending Minneapolis Center
Tue 03:19:30 PM 43.7436 -85.2000 193° South 476 548 32,000 -336 Descending Minneapolis Center
Tue 03:20:32 PM 43.6142 -85.2422 193° South 477 549 32,000  Level Minneapolis Center
Tue 03:21:33 PM 43.4992 -85.3183 206° Southwest 467 537 32,000  Level Minneapolis Center
Tue 03:22:35 PM 43.4217 -85.4475 230° Southwest 444 511 32,000 -435 Level Minneapolis Center
Tue 03:23:37 PM 43.3478 -85.5819 233° Southwest 441 507 31,100 -1,122 Descending Minneapolis Center
Tue 03:24:38 PM 43.2722 -85.7144 232° Southwest 442 509 29,700 -1,648 Descending Minneapolis Center
Tue 03:25:08 PM 43.2281 -85.7922 232° Southwest 439 505 28,600 -1,891 Descending Chicago Center
Tue 03:26:10 PM 43.1553 -85.9192 232° Southwest 432 497 26,800 -1,694 Descending Chicago Center
Tue 03:27:12 PM 43.0842 -86.0442 232° Southwest 428 493 25,100 -1,790 Descending Chicago Center
Tue 03:28:14 PM 43.0011 -86.1858 231° Southwest 418 481 23,100 -1,790 Descending Chicago Center
Tue 03:29:16 PM 42.9308 -86.3056 231° Southwest 410 472 21,400 -1,488 Descending Chicago Center
Tue 03:30:19 PM 42.8622 -86.4236 232° Southwest 403 464 20,000 -672 Descending Chicago Center
Tue 03:31:21 PM 42.7942 -86.5397 231° Southwest 395 455 20,000 -339 Level Chicago Center
Tue 03:32:23 PM 42.7253 -86.6558 231° Southwest 397 457 19,300 -1,403 Descending Chicago Center
Tue 03:33:25 PM 42.6444 -86.7925 231° Southwest 391 450 17,100 -2,323 Descending Chicago Center
Tue 03:34:27 PM 42.5783 -86.9028 231° Southwest 380 437 14,500 -2,226 Descending Chicago Center
Tue 03:35:29 PM 42.5200 -87.0056 232° Southwest 347 399 12,500 -2,129 Descending Chicago Center
Tue 03:36:31 PM 42.4608 -87.0997 230° Southwest 332 382 10,100 -1,694 Descending Chicago Center
Tue 03:37:33 PM 42.4314 -87.1961 248° West 286 329 9,000 -870 Descending Chicago Center
Tue 03:43:18 PM 42.0252 -87.4080 248° West 270 311 4,200 -853 Descending FlightAware ADS-B
Tue 03:43:46 PM 42.0054 -87.4463 235° Southwest 266 306 3,700 -240 Descending FlightAware ADS-B
Tue 03:45:48 PM 41.9659 -87.6265 254° West 231 266 3,600 -254 Descending FlightAware ADS-B
Tue 03:46:55 PM 41.9660 -87.7198 270° West 217 250 2,900 -1,017 Descending FlightAware ADS-B
Tue 03:48:45 PM 41.9659 -87.8342 270° West 153 176 600 -587 Descending FlightAware ADS-B
Tue 03:49:59 PM 41.9628 -87.8989 270° West 176 203 1,100 405 Climbing Chicago Center

Login

Don't have an account? Register now (free) for customized features, flight alerts, and more!